Time;durP1;ratioP1;P1;durP2;ratioP2;P2;SDS_P1;SDS_P2;PMS_P1;PMS_P2;Temp;Humidity;BMP_temperature;BMP_pressure;BME280_temperature;BME280_humidity;BME280_pressure;Samples;Min_cycle;Max_cycle;Signal;HPM_P1;HPM_P2
2023/01/05 00:01:54;;;;;;;1999.90;999.90;;;11.50;84.20;;;;;;5014733;28;20420;-70
2023/01/05 00:04:19;;;;;;;1999.90;999.90;;;11.50;88.70;;;;;;5018840;28;20436;-71
2023/01/05 00:06:45;;;;;;;1999.90;999.90;;;11.50;94.50;;;;;;5014672;28;20177;-71
2023/01/05 00:09:13;;;;;;;1999.90;999.90;;;11.50;95.70;;;;;;5015488;28;20263;-70
2023/01/05 00:22:47;;;;;;;1999.90;999.90;;;11.40;93.60;;;;;;5015121;28;20492;-71
2023/01/05 00:25:28;;;;;;;1999.90;999.90;;;11.40;92.10;;;;;;5015033;28;20501;-71
2023/01/05 00:27:55;;;;;;;1999.90;999.90;;;11.40;85.70;;;;;;5014689;28;20779;-70
2023/01/05 00:30:42;;;;;;;1999.90;999.90;;;11.40;89.30;;;;;;5014874;28;20423;-70
2023/01/05 00:33:13;;;;;;;1999.90;999.90;;;11.50;96.60;;;;;;5014873;28;20509;-70
2023/01/05 00:35:39;;;;;;;1999.90;999.90;;;11.40;82.50;;;;;;5014675;28;20419;-70
2023/01/05 00:38:06;;;;;;;1999.90;999.90;;;11.40;74.50;;;;;;5013939;28;20469;-71
2023/01/05 00:40:32;;;;;;;1999.90;999.90;;;11.50;59.80;;;;;;5015304;28;20507;-69
2023/01/05 00:42:58;;;;;;;1999.90;999.90;;;11.40;99.90;;;;;;5015668;28;20408;-70
2023/01/05 00:45:23;;;;;;;1999.90;999.90;;;11.50;99.90;;;;;;5015195;28;20458;-70
2023/01/05 00:47:50;;;;;;;1999.90;999.90;;;11.40;99.90;;;;;;5014801;28;20173;-71
2023/01/05 00:50:17;;;;;;;1999.90;999.90;;;11.40;99.90;;;;;;5014936;28;20168;-71
2023/01/05 00:52:43;;;;;;;1999.90;999.90;;;11.40;99.90;;;;;;5014280;28;20444;-71
2023/01/05 00:55:09;;;;;;;1999.90;999.90;;;11.40;99.90;;;;;;5014202;28;20434;-71
2023/01/05 00:57:36;;;;;;;1999.90;999.90;;;11.40;99.90;;;;;;5019503;28;20439;-70
2023/01/05 01:00:03;;;;;;;1999.90;999.90;;;11.30;99.90;;;;;;5020955;28;20477;-71
2023/01/05 01:02:29;;;;;;;1999.90;999.90;;;11.30;99.90;;;;;;5020551;28;20184;-69
2023/01/05 01:04:54;;;;;;;1999.90;999.90;;;11.50;99.90;;;;;;5018568;28;20482;-69
2023/01/05 01:07:20;;;;;;;1999.90;999.90;;;11.30;99.90;;;;;;5018546;28;20263;-70
2023/01/05 01:09:45;;;;;;;1999.90;999.90;;;11.40;99.90;;;;;;5018494;28;20307;-69
2023/01/05 01:12:11;;;;;;;1999.90;999.90;;;11.50;99.90;;;;;;5018460;28;20197;-69
2023/01/05 01:14:38;;;;;;;1999.90;999.90;;;11.40;99.90;;;;;;5018465;28;20199;-69
2023/01/05 01:17:04;;;;;;;1999.90;999.90;;;11.40;99.90;;;;;;5018481;28;20180;-71
2023/01/05 01:19:29;;;;;;;1999.90;999.90;;;11.40;99.90;;;;;;5018416;28;20419;-70
2023/01/05 01:21:55;;;;;;;1999.90;999.90;;;11.40;99.90;;;;;;5018668;28;20410;-71
2023/01/05 01:24:24;;;;;;;1999.90;999.90;;;11.40;99.90;;;;;;5018388;28;20237;-70
2023/01/05 01:26:49;;;;;;;1999.90;999.90;;;11.30;99.90;;;;;;5018328;28;20175;-70
2023/01/05 01:29:18;;;;;;;1999.90;999.90;;;11.30;99.90;;;;;;5018213;28;20880;-70
2023/01/05 01:31:46;;;;;;;1999.90;999.90;;;11.30;99.90;;;;;;5018539;28;20187;-71
2023/01/05 01:34:12;;;;;;;1999.90;999.90;;;11.40;99.90;;;;;;5021070;28;20829;-70
2023/01/05 01:36:38;;;;;;;1999.90;999.90;;;11.40;99.90;;;;;;5020945;28;20404;-71
2023/01/05 01:39:04;;;;;;;1999.90;999.90;;;11.40;99.90;;;;;;5019006;28;20164;-70
2023/01/05 01:41:29;;;;;;;1999.90;999.90;;;11.40;99.90;;;;;;5018243;28;20484;-71
2023/01/05 01:43:56;;;;;;;1999.90;999.90;;;11.30;99.90;;;;;;5018240;28;20676;-70
2023/01/05 01:46:23;;;;;;;1999.90;999.90;;;11.30;99.90;;;;;;5018218;28;20180;-71
2023/01/05 01:48:51;;;;;;;1999.90;999.90;;;11.40;99.90;;;;;;5018205;28;20868;-71
2023/01/05 01:51:25;;;;;;;1999.90;999.90;;;11.40;99.90;;;;;;5018551;28;20971;-70
2023/01/05 01:53:56;;;;;;;1999.90;999.90;;;11.40;99.90;;;;;;5017950;28;20466;-71
2023/01/05 01:56:23;;;;;;;1999.90;999.90;;;11.30;99.90;;;;;;5018146;28;20778;-71
2023/01/05 01:58:50;;;;;;;1999.90;999.90;;;11.30;99.90;;;;;;5018099;28;20449;-70
2023/01/05 02:01:16;;;;;;;1999.90;999.90;;;11.40;99.90;;;;;;5018143;28;20400;-71
2023/01/05 02:03:42;;;;;;;1999.90;999.90;;;11.30;99.90;;;;;;5018072;28;20991;-70
2023/01/05 02:06:08;;;;;;;1999.90;999.90;;;11.30;99.90;;;;;;5018001;28;20951;-71
2023/01/05 02:08:34;;;;;;;1999.90;999.90;;;11.30;99.90;;;;;;5014907;28;20432;-71
2023/01/05 02:11:34;;;;;;;1999.90;999.90;;;11.30;99.90;;;;;;5014945;28;20521;-71
2023/01/05 02:14:31;;;;;;;1999.90;999.90;;;11.30;99.90;;;;;;5001499;28;20226;-71
2023/01/05 02:17:25;;;;;;;1999.90;999.90;;;11.30;99.90;;;;;;5014856;28;20750;-70
2023/01/05 02:20:23;;;;;;;1999.90;999.90;;;11.30;99.90;;;;;;5014708;28;20423;-70
2023/01/05 02:23:07;;;;;;;1999.90;999.90;;;11.30;99.90;;;;;;5014859;28;20412;-70
2023/01/05 02:25:41;;;;;;;1999.90;999.90;;;11.30;99.90;;;;;;5014693;28;20439;-71
2023/01/05 02:28:21;;;;;;;1999.90;999.90;;;11.30;99.90;;;;;;5014548;28;20495;-70
2023/01/05 02:30:53;;;;;;;1999.90;999.90;;;11.20;99.90;;;;;;5014665;28;20425;-70
2023/01/05 02:33:41;;;;;;;1999.90;999.90;;;11.20;99.90;;;;;;5014345;28;20854;-71
2023/01/05 02:36:21;;;;;;;1999.90;999.90;;;11.10;99.90;;;;;;5014642;28;20918;-70
2023/01/05 02:39:01;;;;;;;1999.90;999.90;;;11.10;99.90;;;;;;5014323;28;20413;-70
2023/01/05 02:41:33;;;;;;;1999.90;999.90;;;11.00;99.90;;;;;;5014574;28;20403;-70
2023/01/05 02:44:00;;;;;;;1999.90;999.90;;;11.00;99.90;;;;;;5014235;28;20485;-70
2023/01/05 02:46:25;;;;;;;1999.90;999.90;;;11.00;99.90;;;;;;5014315;28;20406;-71
2023/01/05 02:48:55;;;;;;;1999.90;999.90;;;11.10;99.90;;;;;;5014243;28;20905;-70
2023/01/05 02:51:28;;;;;;;1999.90;999.90;;;11.10;99.90;;;;;;5014290;28;20256;-70
2023/01/05 02:54:26;;;;;;;1999.90;999.90;;;11.20;99.90;;;;;;5013928;28;20473;-70
2023/01/05 02:56:54;;;;;;;1999.90;999.90;;;11.20;99.90;;;;;;5014145;28;20399;-71
2023/01/05 02:59:26;;;;;;;1999.90;999.90;;;11.20;99.90;;;;;;5014179;28;20412;-70
2023/01/05 03:02:00;;;;;;;1999.90;999.90;;;11.20;99.90;;;;;;5014115;28;20412;-70
2023/01/05 03:04:45;;;;;;;1999.90;999.90;;;11.40;99.90;;;;;;5014010;28;20423;-71
2023/01/05 03:07:16;;;;;;;1999.90;999.90;;;11.20;99.90;;;;;;5013928;28;20403;-70
2023/01/05 03:09:43;;;;;;;1999.90;999.90;;;11.30;99.90;;;;;;5013767;28;20404;-71
2023/01/05 03:15:27;;;;;;;1999.90;999.90;;;11.30;99.90;;;;;;5014100;28;20427;-71
2023/01/05 03:17:58;;;;;;;1999.90;999.90;;;11.30;99.90;;;;;;5013608;28;20493;-70
2023/01/05 03:20:28;;;;;;;1999.90;999.90;;;11.30;99.90;;;;;;5013677;28;20410;-70
2023/01/05 03:37:42;;;;;;;1999.90;999.90;;;11.20;99.90;;;;;;5013273;28;20419;-70
2023/01/05 03:40:17;;;;;;;1999.90;999.90;;;11.30;99.90;;;;;;5013270;28;20733;-71
2023/01/05 03:42:43;;;;;;;1999.90;999.90;;;11.30;99.90;;;;;;5013635;28;20482;-70
2023/01/05 03:45:10;;;;;;;1999.90;999.90;;;11.30;99.90;;;;;;5013225;28;20428;-70
2023/01/05 03:47:36;;;;;;;1999.90;999.90;;;11.20;40.90;;;;;;5013123;28;20400;-71
2023/01/05 03:50:02;;;;;;;1999.90;999.90;;;11.30;42.60;;;;;;5012971;28;20402;-71
2023/01/05 03:52:27;;;;;;;1999.90;999.90;;;11.20;40.40;;;;;;5013028;28;20199;-70
2023/01/05 03:54:53;;;;;;;1999.90;999.90;;;11.20;42.30;;;;;;5012931;28;20197;-71
2023/01/05 03:57:18;;;;;;;1999.90;999.90;;;11.30;41.20;;;;;;5012957;28;20570;-71
2023/01/05 03:59:44;;;;;;;1999.90;999.90;;;11.30;38.80;;;;;;5012766;28;20169;-71
2023/01/05 04:02:09;;;;;;;1999.90;999.90;;;11.30;36.20;;;;;;5014039;28;20238;-71
2023/01/05 04:04:35;;;;;;;1999.90;999.90;;;11.20;31.00;;;;;;5014040;28;20196;-71
2023/01/05 04:07:01;;;;;;;1999.90;999.90;;;11.30;33.50;;;;;;5014715;28;20180;-70
2023/01/05 04:09:26;;;;;;;1999.90;999.90;;;11.20;36.10;;;;;;5013585;28;20168;-70
2023/01/05 04:11:52;;;;;;;1999.90;999.90;;;11.20;39.10;;;;;;5012811;28;20500;-71
2023/01/05 04:14:17;;;;;;;1999.90;999.90;;;11.20;38.80;;;;;;5012713;28;20239;-70
2023/01/05 04:16:43;;;;;;;1999.90;999.90;;;11.20;34.70;;;;;;5012635;28;20196;-70
2023/01/05 04:19:09;;;;;;;1999.90;999.90;;;11.20;36.40;;;;;;5012518;28;20172;-70
2023/01/05 04:21:35;;;;;;;1999.90;999.90;;;11.20;33.20;;;;;;5012682;28;20169;-70
2023/01/05 04:24:00;;;;;;;1999.90;999.90;;;11.30;31.20;;;;;;5012501;28;20515;-70
2023/01/05 04:26:26;;;;;;;1999.90;999.90;;;11.30;31.40;;;;;;5012522;28;20180;-70
2023/01/05 04:28:52;;;;;;;1999.90;999.90;;;11.20;33.00;;;;;;5012393;28;20200;-70
2023/01/05 04:31:17;;;;;;;1999.90;999.90;;;11.30;35.50;;;;;;5011953;28;20650;-70
2023/01/05 04:33:44;;;;;;;1999.90;999.90;;;11.20;37.90;;;;;;5012277;28;20209;-69
2023/01/05 04:36:10;;;;;;;1999.90;999.90;;;11.20;40.70;;;;;;5012395;28;20203;-70
2023/01/05 04:38:35;;;;;;;1999.90;999.90;;;11.20;37.40;;;;;;5012229;28;20407;-70
2023/01/05 04:41:01;;;;;;;1999.90;999.90;;;11.20;35.10;;;;;;5012393;28;20403;-71
2023/01/05 04:43:26;;;;;;;1999.90;999.90;;;11.20;40.80;;;;;;5012298;28;20191;-70
2023/01/05 04:45:52;;;;;;;1999.90;999.90;;;11.20;42.30;;;;;;5012259;28;20203;-70
2023/01/05 04:48:18;;;;;;;1999.90;999.90;;;11.30;39.50;;;;;;5012112;28;20176;-70
2023/01/05 04:50:43;;;;;;;1999.90;999.90;;;11.20;41.10;;;;;;5012321;28;20180;-70
2023/01/05 04:53:09;;;;;;;1999.90;999.90;;;11.60;69.00;;;;;;5011972;28;20291;-70
2023/01/05 04:55:35;;;;;;;1999.90;999.90;;;11.20;48.00;;;;;;5012216;28;20168;-69
2023/01/05 04:58:00;;;;;;;1999.90;999.90;;;11.20;53.80;;;;;;5011950;28;20408;-70
2023/01/05 05:00:27;;;;;;;1999.90;999.90;;;11.00;54.70;;;;;;5012203;28;20567;-70
2023/01/05 05:02:52;;;;;;;1999.90;999.90;;;11.20;61.30;;;;;;5012271;28;20172;-70
2023/01/05 05:05:18;;;;;;;1999.90;999.90;;;11.20;67.30;;;;;;5006035;28;20794;-70
2023/01/05 05:07:44;;;;;;;1999.90;999.90;;;11.10;87.30;;;;;;4992370;28;20178;-70
2023/01/05 05:10:09;;;;;;;1999.90;999.90;;;11.10;92.70;;;;;;4992355;28;20212;-70
2023/01/05 05:12:35;;;;;;;1999.90;999.90;;;11.00;99.90;;;;;;4992430;28;20434;-70
2023/01/05 05:15:00;;;;;;;1999.90;999.90;;;11.00;99.90;;;;;;4992401;28;20185;-70
2023/01/05 05:17:26;;;;;;;1999.90;999.90;;;11.00;99.90;;;;;;4992338;28;20171;-70
2023/01/05 05:19:51;;;;;;;1999.90;999.90;;;11.00;99.90;;;;;;4992254;28;20166;-70
2023/01/05 05:22:17;;;;;;;1999.90;999.90;;;11.10;99.90;;;;;;4992379;28;20260;-70
2023/01/05 05:24:43;;;;;;;1999.90;999.90;;;10.90;99.90;;;;;;4992277;28;20186;-70
2023/01/05 05:27:08;;;;;;;1999.90;999.90;;;10.90;99.90;;;;;;4992272;28;20180;-70
2023/01/05 05:29:34;;;;;;;1999.90;999.90;;;10.90;99.90;;;;;;4992177;28;20169;-69
2023/01/05 05:31:59;;;;;;;1999.90;999.90;;;10.90;99.90;;;;;;4992251;28;20733;-70
2023/01/05 05:34:25;;;;;;;1999.90;999.90;;;10.90;99.90;;;;;;4992180;28;20273;-69
2023/01/05 05:36:50;;;;;;;1999.90;999.90;;;10.90;99.90;;;;;;4992181;28;20170;-69
2023/01/05 05:39:16;;;;;;;1999.90;999.90;;;10.90;99.90;;;;;;4992081;28;20239;-70
2023/01/05 05:41:41;;;;;;;1999.90;999.90;;;10.90;99.90;;;;;;4992260;28;20176;-70
2023/01/05 05:44:07;;;;;;;1999.90;999.90;;;11.00;99.90;;;;;;4994165;28;20201;-69
2023/01/05 05:46:33;;;;;;;1999.90;999.90;;;10.90;99.90;;;;;;4995795;28;20178;-70
2023/01/05 05:48:59;;;;;;;1999.90;999.90;;;11.00;99.90;;;;;;4995634;28;20415;-70
2023/01/05 05:51:26;;;;;;;1999.90;999.90;;;11.10;99.90;;;;;;4995838;28;20170;-69
2023/01/05 05:53:52;;;;;;;1999.90;999.90;;;11.00;99.90;;;;;;4995559;28;21048;-70
2023/01/05 05:56:18;;;;;;;1999.90;999.90;;;11.00;99.90;;;;;;4995627;28;20409;-70
2023/01/05 05:58:43;;;;;;;1999.90;999.90;;;11.00;99.90;;;;;;4995497;28;20415;-70
2023/01/05 06:01:10;;;;;;;1999.90;999.90;;;11.10;97.80;;;;;;4995635;28;20181;-70
2023/01/05 06:03:36;;;;;;;1999.90;999.90;;;11.10;95.10;;;;;;4995459;28;20198;-70
2023/01/05 06:06:02;;;;;;;1999.90;999.90;;;11.10;96.10;;;;;;4995376;28;20483;-70
2023/01/05 06:08:28;;;;;;;1999.90;999.90;;;11.10;94.30;;;;;;4995309;28;20185;-70
2023/01/05 06:10:55;;;;;;;1999.90;999.90;;;11.10;94.70;;;;;;4995441;28;21229;-70
2023/01/05 06:13:21;;;;;;;1999.90;999.90;;;11.10;93.80;;;;;;4995338;28;20468;-70
2023/01/05 06:15:47;;;;;;;1999.90;999.90;;;11.10;91.80;;;;;;4995379;28;20821;-70
2023/01/05 06:18:12;;;;;;;1999.90;999.90;;;11.10;90.70;;;;;;4995103;28;20408;-70
2023/01/05 06:20:39;;;;;;;1999.90;999.90;;;11.10;90.40;;;;;;4995197;28;20428;-70
2023/01/05 06:23:04;;;;;;;1999.90;999.90;;;10.80;99.90;;;;;;4995189;28;20253;-70
2023/01/05 06:25:30;;;;;;;1999.90;999.90;;;11.10;93.30;;;;;;4995259;28;20961;-70
2023/01/05 06:27:56;;;;;;;1999.90;999.90;;;11.00;95.80;;;;;;4994986;28;20188;-70
2023/01/05 06:30:21;;;;;;;1999.90;999.90;;;11.00;98.70;;;;;;4995130;28;20654;-70
2023/01/05 06:32:47;;;;;;;1999.90;999.90;;;11.00;99.90;;;;;;4994929;28;20240;-70
2023/01/05 06:35:13;;;;;;;1999.90;999.90;;;11.10;99.90;;;;;;4994929;28;20197;-70
2023/01/05 06:37:38;;;;;;;1999.90;999.90;;;11.00;99.90;;;;;;4994796;28;20285;-71
2023/01/05 06:40:04;;;;;;;1999.90;999.90;;;11.10;98.70;;;;;;4994905;28;20260;-71
2023/01/05 06:42:30;;;;;;;1999.90;999.90;;;11.00;96.90;;;;;;5000628;28;20166;-70
2023/01/05 06:44:56;;;;;;;1999.90;999.90;;;11.00;96.40;;;;;;5000827;28;20433;-71
2023/01/05 06:47:22;;;;;;;1999.90;999.90;;;11.00;94.90;;;;;;5000364;28;20414;-70
2023/01/05 06:49:47;;;;;;;1999.90;999.90;;;11.00;95.10;;;;;;5001111;28;20273;-71
2023/01/05 06:52:13;;;;;;;1999.90;999.90;;;11.10;93.70;;;;;;4995363;28;20212;-71
2023/01/05 06:54:38;;;;;;;1999.90;999.90;;;11.00;92.60;;;;;;4993983;28;20640;-70
2023/01/05 06:57:05;;;;;;;1999.90;999.90;;;11.10;91.30;;;;;;4994571;28;20166;-71
2023/01/05 06:59:31;;;;;;;1999.90;999.90;;;11.10;90.40;;;;;;4994609;28;20319;-71
2023/01/05 07:01:57;;;;;;;1999.90;999.90;;;11.20;89.80;;;;;;4994570;28;20922;-71
2023/01/05 07:04:22;;;;;;;1999.90;999.90;;;11.00;82.60;;;;;;4994829;28;20479;-70
2023/01/05 07:06:48;;;;;;;1999.90;999.90;;;11.10;79.60;;;;;;4994288;28;20211;-70
2023/01/05 07:09:14;;;;;;;1999.90;999.90;;;11.10;77.70;;;;;;4994235;28;20188;-69
2023/01/05 07:11:39;;;;;;;1999.90;999.90;;;11.10;73.90;;;;;;4994372;28;20204;-70
2023/01/05 07:14:05;;;;;;;1999.90;999.90;;;11.10;74.20;;;;;;4994201;28;20215;-70
2023/01/05 07:16:30;;;;;;;1999.90;999.90;;;11.10;70.00;;;;;;4994173;28;20181;-69
2023/01/05 07:18:56;;;;;;;1999.90;999.90;;;11.10;66.70;;;;;;4993928;28;20181;-69
2023/01/05 07:21:21;;;;;;;1999.90;999.90;;;11.10;67.40;;;;;;4994136;28;20181;-69
2023/01/05 07:23:47;;;;;;;1999.90;999.90;;;11.10;63.20;;;;;;4994056;28;20200;-69
2023/01/05 07:26:13;;;;;;;1999.90;999.90;;;11.10;62.70;;;;;;4993943;28;20631;-70
2023/01/05 07:28:38;;;;;;;1999.90;999.90;;;11.10;63.90;;;;;;4993894;28;20204;-70
2023/01/05 07:31:06;;;;;;;1999.90;999.90;;;11.10;62.30;;;;;;4993964;28;20184;-70
2023/01/05 07:33:31;;;;;;;1999.90;999.90;;;11.10;61.80;;;;;;4993693;28;20222;-70
2023/01/05 07:36:03;;;;;;;1999.90;999.90;;;11.00;59.90;;;;;;4993697;28;20415;-70
2023/01/05 07:38:30;;;;;;;1999.90;999.90;;;11.10;69.30;;;;;;4993648;28;20264;-70
2023/01/05 07:41:00;;;;;;;1999.90;999.90;;;11.10;63.90;;;;;;4993774;28;20413;-69
2023/01/05 07:43:26;;;;;;;1999.90;999.90;;;11.00;60.50;;;;;;4993524;28;20535;-70
2023/01/05 07:45:57;;;;;;;1999.90;999.90;;;11.10;60.80;;;;;;4993543;28;20412;-70
2023/01/05 07:48:22;;;;;;;1999.90;999.90;;;11.10;56.50;;;;;;4993434;28;20834;-70
2023/01/05 07:50:48;;;;;;;1999.90;999.90;;;11.10;54.80;;;;;;4993544;28;20499;-70
2023/01/05 07:53:14;;;;;;;1999.90;999.90;;;11.10;52.90;;;;;;4993365;28;20220;-70
2023/01/05 07:55:39;;;;;;;1999.90;999.90;;;11.10;49.70;;;;;;4993489;28;20248;-70
2023/01/05 07:58:05;;;;;;;1999.90;999.90;;;11.10;50.50;;;;;;4993215;28;20640;-69
2023/01/05 08:00:30;;;;;;;1999.90;999.90;;;11.10;48.50;;;;;;4993447;28;20181;-70
2023/01/05 08:02:56;;;;;;;1999.90;999.90;;;11.00;63.90;;;;;;4993143;28;20184;-70
2023/01/05 08:05:21;;;;;;;1999.90;999.90;;;11.10;45.00;;;;;;4993185;28;20184;-70
2023/01/05 08:07:47;;;;;;;1999.90;999.90;;;11.10;42.00;;;;;;4992756;28;20200;-70
2023/01/05 08:10:27;;;;;;;1999.90;999.90;;;11.10;39.90;;;;;;4993059;28;20169;-70
2023/01/05 08:15:38;;;;;;;1999.90;999.90;;;11.20;34.90;;;;;;4993359;28;20446;-70
2023/01/05 08:18:03;;;;;;;1999.90;999.90;;;11.10;32.50;;;;;;4992819;28;20826;-70
2023/01/05 08:20:29;;;;;;;1999.90;999.90;;;11.20;32.50;;;;;;4993365;28;20225;-70
2023/01/05 08:22:55;;;;;;;1999.90;999.90;;;11.40;47.20;;;;;;4993033;28;20189;-70
2023/01/05 08:25:20;;;;;;;1999.90;999.90;;;11.20;31.90;;;;;;4993062;28;20662;-70
2023/01/05 08:27:46;;;;;;;1999.90;999.90;;;11.20;47.20;;;;;;4992837;28;20173;-70
2023/01/05 08:30:12;;;;;;;1999.90;999.90;;;11.10;54.90;;;;;;4992743;28;20195;-70
2023/01/05 08:32:39;;;;;;;1999.90;999.90;;;11.10;66.90;;;;;;4992837;28;20495;-70
2023/01/05 08:35:05;;;;;;;1999.90;999.90;;;11.00;79.30;;;;;;4992769;28;20438;-70
2023/01/05 08:37:31;;;;;;;1999.90;999.90;;;11.10;76.50;;;;;;4992700;28;20495;-70
2023/01/05 08:39:57;;;;;;;1999.90;999.90;;;11.00;74.10;;;;;;4992583;28;20415;-70
2023/01/05 08:42:22;;;;;;;1999.90;999.90;;;11.00;85.10;;;;;;4992755;28;20169;-70
2023/01/05 08:44:48;;;;;;;1999.90;999.90;;;11.00;90.00;;;;;;4992684;28;20459;-70
2023/01/05 08:47:14;;;;;;;1999.90;999.90;;;11.00;73.00;;;;;;4992609;28;20551;-70
2023/01/05 08:49:40;;;;;;;1999.90;999.90;;;11.10;65.20;;;;;;4992555;28;20600;-70
2023/01/05 08:52:07;;;;;;;1999.90;999.90;;;11.10;59.40;;;;;;4992685;28;20660;-70
2023/01/05 08:54:32;;;;;;;1999.90;999.90;;;11.10;63.00;;;;;;4992561;28;20223;-70
2023/01/05 08:56:58;;;;;;;1999.90;999.90;;;11.10;57.70;;;;;;4992534;28;20405;-70
2023/01/05 08:59:24;;;;;;;1999.90;999.90;;;11.10;47.70;;;;;;4992454;28;20251;-70
2023/01/05 09:01:49;;;;;;;1999.90;999.90;;;11.20;50.10;;;;;;4992541;28;20192;-69
2023/01/05 09:04:15;;;;;;;1999.90;999.90;;;11.10;55.70;;;;;;4992543;28;20239;-70
2023/01/05 09:06:40;;;;;;;1999.90;999.90;;;11.10;47.10;;;;;;4992488;28;20180;-70
2023/01/05 09:09:06;;;;;;;1999.90;999.90;;;11.10;60.30;;;;;;4992336;28;20399;-70
2023/01/05 09:11:33;;;;;;;1999.90;999.90;;;11.10;75.40;;;;;;4992507;28;20551;-70
2023/01/05 09:14:01;;;;;;;1999.90;999.90;;;11.20;84.70;;;;;;4992289;28;20211;-70
2023/01/05 09:16:30;;;;;;;1999.90;999.90;;;11.10;82.40;;;;;;4992482;28;20406;-70
2023/01/05 09:19:03;;;;;;;1999.90;999.90;;;11.10;75.40;;;;;;4995883;28;21034;-70
2023/01/05 09:21:28;;;;;;;1999.90;999.90;;;11.10;79.30;;;;;;4996468;28;20487;-70
2023/01/05 09:23:54;;;;;;;1999.90;999.90;;;11.10;92.40;;;;;;4996183;28;20515;-70
2023/01/05 09:26:19;;;;;;;1999.90;999.90;;;11.10;85.30;;;;;;4996111;28;20180;-70
2023/01/05 09:28:45;;;;;;;1999.90;999.90;;;11.20;77.00;;;;;;4996065;28;20656;-70
2023/01/05 09:31:16;;;;;;;1999.90;999.90;;;11.20;84.00;;;;;;4996156;28;20208;-70
2023/01/05 09:33:43;;;;;;;1999.90;999.90;;;11.20;67.80;;;;;;4996077;28;20583;-71
2023/01/05 09:36:10;;;;;;;1999.90;999.90;;;11.40;56.90;;;;;;4995998;28;20602;-71
2023/01/05 09:38:36;;;;;;;1999.90;999.90;;;11.30;54.10;;;;;;4995943;28;20440;-71
2023/01/05 09:41:19;;;;;;;1999.90;999.90;;;11.30;43.20;;;;;;4996159;28;20421;-70
2023/01/05 09:43:46;;;;;;;1999.90;999.90;;;11.40;36.90;;;;;;4996076;28;20806;-71
2023/01/05 09:46:23;;;;;;;1999.90;999.90;;;11.40;25.20;;;;;;4995844;28;20413;-71
2023/01/05 09:48:52;;;;;;;1999.90;999.90;;;11.40;23.00;;;;;;4995770;28;20770;-71
2023/01/05 09:51:18;;;;;;;1999.90;999.90;;;11.50;16.50;;;;;;4995959;28;20463;-71
2023/01/05 09:53:44;;;;;;;1999.90;999.90;;;11.50;15.10;;;;;;4995575;28;20500;-70
2023/01/05 09:56:29;;;;;;;1999.90;999.90;;;11.50;9.70;;;;;;4995800;28;20178;-71
2023/01/05 09:59:06;;;;;;;1999.90;999.90;;;11.50;1.50;;;;;;4995542;28;20436;-71
2023/01/05 10:01:34;;;;;;;1999.90;999.90;;;11.50;1.00;;;;;;4995778;28;20882;-69
2023/01/05 10:04:05;;;;;;;1999.90;999.90;;;11.60;1.00;;;;;;4992220;28;20443;-71
2023/01/05 10:06:37;;;;;;;1999.90;999.90;;;11.60;1.00;;;;;;4995620;28;20412;-71
2023/01/05 10:09:05;;;;;;;1999.90;999.90;;;11.60;1.00;;;;;;4995005;28;20412;-71
2023/01/05 10:14:47;;;;;;;1999.90;999.90;;;11.70;1.00;;;;;;4994946;28;20424;-71
2023/01/05 10:17:18;;;;;;;1999.90;999.90;;;11.70;1.00;;;;;;4994615;28;20397;-72
2023/01/05 10:19:45;;;;;;;1999.90;999.90;;;11.80;1.00;;;;;;4994990;28;20394;-71
2023/01/05 10:22:26;;;;;;;1999.90;999.90;;;11.80;1.00;;;;;;4995008;28;20401;-72
2023/01/05 10:24:58;;;;;;;1999.90;999.90;;;11.80;1.00;;;;;;4994670;28;20503;-71
2023/01/05 10:28:03;;;;;;;1999.90;999.90;;;11.90;1.00;;;;;;4994873;28;20512;-71
2023/01/05 10:30:58;;;;;;;1999.90;999.90;;;12.00;1.00;;;;;;4972010;28;20829;-70
2023/01/05 10:33:48;;;;;;;1999.90;999.90;;;12.00;1.00;;;;;;4993813;28;20502;-71
2023/01/05 10:36:48;;;;;;;1999.90;999.90;;;12.00;1.00;;;;;;4993581;28;20405;-72
2023/01/05 10:39:35;;;;;;;1999.90;999.90;;;12.00;1.00;;;;;;4993931;28;20389;-71
2023/01/05 10:42:11;;;;;;;1999.90;999.90;;;12.00;1.00;;;;;;4994530;28;20408;-71
2023/01/05 10:44:52;;;;;;;1999.90;999.90;;;12.10;1.00;;;;;;4994568;28;20424;-71
2023/01/05 10:47:19;;;;;;;1999.90;999.90;;;12.30;1.00;;;;;;4994029;28;20404;-72
2023/01/05 10:49:45;;;;;;;1999.90;999.90;;;12.30;1.00;;;;;;4992077;28;20417;-72
2023/01/05 10:52:14;;;;;;;1999.90;999.90;;;12.30;1.00;;;;;;4991683;28;20405;-72
2023/01/05 10:54:43;;;;;;;1999.90;999.90;;;12.30;1.00;;;;;;4992760;28;20449;-72
2023/01/05 10:57:27;;;;;;;1999.90;999.90;;;12.30;1.00;;;;;;4993204;28;20410;-72
2023/01/05 11:00:00;;;;;;;1999.90;999.90;;;12.30;1.00;;;;;;4992794;28;20401;-72
2023/01/05 11:02:29;;;;;;;1999.90;999.90;;;12.20;1.00;;;;;;4992121;28;20405;-72
2023/01/05 11:05:11;;;;;;;1999.90;999.90;;;12.20;1.00;;;;;;4991814;28;20426;-72
2023/01/05 11:07:52;;;;;;;1999.90;999.90;;;12.20;1.00;;;;;;4992810;28;20434;-72
2023/01/05 11:10:38;;;;;;;1999.90;999.90;;;12.20;83.00;;;;;;4992395;28;20508;-72
2023/01/05 11:13:18;;;;;;;1999.90;999.90;;;12.40;99.90;;;;;;4992189;28;20460;-72
2023/01/05 11:16:05;;;;;;;1999.90;999.90;;;12.30;99.90;;;;;;4992444;28;20401;-72
2023/01/05 11:18:37;;;;;;;1999.90;999.90;;;12.30;99.90;;;;;;4992671;28;20500;-72
2023/01/05 11:21:12;;;;;;;1999.90;999.90;;;12.40;99.90;;;;;;4992786;28;20880;-72
2023/01/05 11:23:42;;;;;;;1999.90;999.90;;;12.60;99.90;;;;;;4991793;28;20498;-72
2023/01/05 11:26:34;;;;;;;1999.90;999.90;;;12.90;99.90;;;;;;4992394;28;20416;-72
2023/01/05 11:29:03;;;;;;;1999.90;999.90;;;13.10;99.90;;;;;;4992085;28;20410;-72
2023/01/05 11:31:52;;;;;;;1999.90;999.90;;;13.50;99.90;;;;;;4991648;28;20431;-72
2023/01/05 11:34:27;;;;;;;1999.90;999.90;;;14.00;99.90;;;;;;4991483;28;20485;-72
2023/01/05 11:37:14;;;;;;;1999.90;999.90;;;14.00;99.90;;;;;;4991967;28;20955;-72
2023/01/05 11:39:46;;;;;;;1999.90;999.90;;;14.30;99.90;;;;;;4991135;28;20421;-72
2023/01/05 11:42:23;;;;;;;1999.90;999.90;;;14.20;99.90;;;;;;4991919;28;20448;-72
2023/01/05 11:44:58;;;;;;;1999.90;999.90;;;14.10;99.90;;;;;;4991881;28;20479;-72
2023/01/05 11:47:38;;;;;;;1999.90;999.90;;;13.80;99.90;;;;;;4991577;28;20405;-72
2023/01/05 11:50:31;;;;;;;1999.90;999.90;;;13.40;99.90;;;;;;4991928;28;20402;-72
2023/01/05 11:53:01;;;;;;;1999.90;999.90;;;13.30;99.90;;;;;;4991112;28;20458;-72
2023/01/05 11:55:32;;;;;;;1999.90;999.90;;;12.90;99.90;;;;;;4990915;28;20397;-71
2023/01/05 11:58:25;;;;;;;1999.90;999.90;;;12.90;99.90;;;;;;4991731;28;20444;-72
2023/01/05 12:01:05;;;;;;;1999.90;999.90;;;12.90;99.90;;;;;;4991769;28;20401;-72
2023/01/05 12:03:46;;;;;;;1999.90;999.90;;;12.70;99.90;;;;;;4991298;28;20421;-71
2023/01/05 12:06:35;;;;;;;1999.90;999.90;;;12.70;99.90;;;;;;4991864;28;20399;-72
2023/01/05 12:09:30;;;;;;;1999.90;999.90;;;12.80;99.90;;;;;;4991604;28;20397;-71
2023/01/05 12:12:05;;;;;;;1999.90;999.90;;;12.90;99.90;;;;;;4989513;28;20428;-71
2023/01/05 12:14:39;;;;;;;1999.90;999.90;;;12.90;99.90;;;;;;4991295;28;20432;-72
2023/01/05 12:17:14;;;;;;;1999.90;999.90;;;12.90;99.90;;;;;;4991093;28;20572;-72
2023/01/05 12:19:48;;;;;;;1999.90;999.90;;;13.00;99.90;;;;;;4991737;28;20876;-72
2023/01/05 12:22:41;;;;;;;1999.90;999.90;;;13.50;99.90;;;;;;4991560;28;20906;-71
2023/01/05 12:25:37;;;;;;;1999.90;999.90;;;14.00;99.90;;;;;;4991193;28;20854;-72
2023/01/05 12:28:15;;;;;;;1999.90;999.90;;;14.80;99.90;;;;;;4991308;28;20401;-72
2023/01/05 12:30:43;;;;;;;1999.90;999.90;;;15.40;99.90;;;;;;4991116;28;20406;-72
2023/01/05 12:33:23;;;;;;;1999.90;999.90;;;15.30;99.90;;;;;;4991107;28;20483;-72
2023/01/05 12:36:04;;;;;;;1999.90;999.90;;;15.30;99.90;;;;;;4990891;28;20408;-72
2023/01/05 12:38:47;;;;;;;1999.90;999.90;;;15.40;99.90;;;;;;4990796;28;20432;-72
2023/01/05 12:41:41;;;;;;;1999.90;999.90;;;15.60;99.90;;;;;;4991125;28;20398;-73
2023/01/05 12:44:16;;;;;;;1999.90;999.90;;;15.90;99.90;;;;;;4991161;28;20436;-73
2023/01/05 12:47:06;;;;;;;1999.90;999.90;;;16.00;99.90;;;;;;4989761;28;20903;-71
2023/01/05 12:49:46;;;;;;;1999.90;999.90;;;15.60;99.90;;;;;;4991159;28;20412;-71
2023/01/05 12:52:20;;;;;;;1999.90;999.90;;;15.10;99.90;;;;;;4990629;28;20409;-72